createdAt,value
2023-01-29T00:09:47.736Z,1030.11
2023-01-29T00:38:54.129Z,1029.9
2023-01-29T01:07:45.269Z,1029.86
2023-01-29T01:36:32.555Z,1030.07
2023-01-29T02:05:27.384Z,1030.05
2023-01-29T02:34:18.961Z,1030.01
2023-01-29T03:03:22.496Z,1030.03
2023-01-29T03:32:23.619Z,1030.07
2023-01-29T04:01:06.789Z,1030.14
2023-01-29T04:29:59.034Z,1030.07
2023-01-29T04:58:58.395Z,1029.94
2023-01-29T05:27:56.368Z,1030.09
2023-01-29T05:56:47.692Z,1029.64
2023-01-29T06:25:43.715Z,1030.03
2023-01-29T06:54:41.499Z,1030.26
2023-01-29T07:23:38.756Z,1030.1
2023-01-29T07:52:45.955Z,1030.52
2023-01-29T08:21:44.153Z,1030.86
2023-01-29T08:50:42.260Z,1031.05
2023-01-29T09:19:43.318Z,1031.08
2023-01-29T09:48:44.838Z,1031.19
2023-01-29T10:17:39.313Z,1030.57
2023-01-29T10:46:33.253Z,1030.55
2023-01-29T11:15:26.790Z,1030.29
2023-01-29T11:44:32.761Z,1030.07
2023-01-29T12:13:19.409Z,1029.92
2023-01-29T12:41:31.313Z,1029.18
2023-01-29T13:09:45.836Z,1028.7
2023-01-29T13:37:59.209Z,1028.58
2023-01-29T14:06:13.094Z,1028.76
2023-01-29T14:34:23.451Z,1028.63
2023-01-29T15:02:40.356Z,1028.75
2023-01-29T15:30:58.045Z,1028.62
2023-01-29T15:59:13.712Z,1028.63
2023-01-29T16:27:40.046Z,1028.82
2023-01-29T16:56:08.832Z,1028.84
2023-01-29T17:24:16.249Z,1028.95
2023-01-29T17:52:34.779Z,1028.74
2023-01-29T18:20:53.408Z,1028.88
2023-01-29T18:49:03.685Z,1028.77
2023-01-29T19:17:29.273Z,1028.99
2023-01-29T19:45:51.031Z,1028.89
2023-01-29T20:13:55.647Z,1028.95
2023-01-29T20:42:15.031Z,1028.88
2023-01-29T21:11:14.364Z,1028.73
2023-01-29T21:39:50.886Z,1028.68
2023-01-29T22:08:45.589Z,1028.53
2023-01-29T22:37:27.475Z,1028.51
2023-01-29T23:06:04.840Z,1028.1
2023-01-29T23:34:54.971Z,1027.7
